Itatiba, Brazil
Current Conditions -  °F | °C
As of 1:00 PM on Wednesday 26 Nov 2014 (Local Time) from SBKP Reporting Station
Light Rain Light Rain  
Wind Chill: 26°   Ceiling: Unl
Heat Index: NA   Visibility: 6mi
Dew Point: NA   Wind: 10mph
Humidity: NA   Direction: 330°NNW
Pressure: 29.85"   Gusts: NA
Location:  23.01°S, 46.84°W
Report Text: SBKP 261500Z 33009KT 9999 3000W -RA SCT023 FEW045TCU SCT100 26/20 Q1011
Loading
Personal Weather Stations






























Interactive Weather Map New forecast layout! Learn more

10-Day Weather Forecast

Advertisements
Track Severe Weather on mobile